createdAt,value
2019-04-29T00:01:15.874Z,23.04
2019-04-29T00:03:42.538Z,23.03
2019-04-29T00:06:09.182Z,22.97
2019-04-29T00:11:02.539Z,22.94
2019-04-29T00:13:29.188Z,22.93
2019-04-29T00:15:55.823Z,22.93
2019-04-29T00:18:22.470Z,22.93
2019-04-29T00:20:49.111Z,22.95
2019-04-29T00:23:15.813Z,22.96
2019-04-29T00:25:42.462Z,22.94
2019-04-29T00:28:09.160Z,22.96
2019-04-29T00:30:35.799Z,22.96
2019-04-29T00:33:02.443Z,22.96
2019-04-29T00:35:29.150Z,22.89
2019-04-29T00:37:55.782Z,22.89
2019-04-29T00:40:22.423Z,22.89
2019-04-29T00:45:15.704Z,22.91
2019-04-29T00:47:42.362Z,22.90
2019-04-29T00:50:09.005Z,22.89
2019-04-29T00:52:35.642Z,22.89
2019-04-29T00:55:02.285Z,22.86
2019-04-29T00:57:28.941Z,22.91
2019-04-29T00:59:55.582Z,22.87
2019-04-29T01:02:22.227Z,22.88
2019-04-29T01:04:48.863Z,22.86
2019-04-29T01:07:15.572Z,22.83
2019-04-29T01:09:42.217Z,22.87
2019-04-29T01:12:08.910Z,22.86
2019-04-29T01:14:35.561Z,22.84
2019-04-29T01:17:03.028Z,22.85
2019-04-29T01:19:29.657Z,22.81
2019-04-29T01:21:56.300Z,22.83
2019-04-29T01:24:22.937Z,22.80
2019-04-29T01:26:49.588Z,22.82
2019-04-29T01:29:16.226Z,22.76
2019-04-29T01:31:42.921Z,22.74
2019-04-29T01:34:09.556Z,22.80
2019-04-29T01:36:36.195Z,22.75
2019-04-29T01:39:02.854Z,22.78
2019-04-29T01:41:29.529Z,22.76
2019-04-29T01:43:56.165Z,22.75
2019-04-29T01:46:22.811Z,22.73
2019-04-29T01:48:49.438Z,22.74
2019-04-29T01:51:16.084Z,22.72
2019-04-29T01:53:42.799Z,22.69
2019-04-29T01:56:09.436Z,22.74
2019-04-29T01:58:36.104Z,22.72
2019-04-29T02:01:02.752Z,22.69
2019-04-29T02:03:29.406Z,22.72
2019-04-29T02:05:59.045Z,22.75
2019-04-29T02:08:25.708Z,22.69
2019-04-29T02:10:52.385Z,22.72
2019-04-29T02:13:19.019Z,22.72
2019-04-29T02:15:45.658Z,22.67
2019-04-29T02:18:12.310Z,22.67
2019-04-29T02:20:38.996Z,22.69
2019-04-29T02:23:05.637Z,22.66
2019-04-29T02:25:32.331Z,22.67
2019-04-29T02:27:58.964Z,22.61
2019-04-29T02:30:25.611Z,22.64
2019-04-29T02:32:52.254Z,22.62
2019-04-29T02:35:18.889Z,22.63
2019-04-29T02:37:45.585Z,22.63
2019-04-29T02:40:12.217Z,22.58
2019-04-29T02:42:38.955Z,22.59
2019-04-29T02:45:05.536Z,22.62
2019-04-29T02:47:32.186Z,22.53
2019-04-29T02:49:58.832Z,22.59
2019-04-29T02:52:25.480Z,22.59
2019-04-29T02:54:52.106Z,22.59
2019-04-29T02:57:19.056Z,22.56
2019-04-29T02:59:45.708Z,22.56
2019-04-29T03:02:12.389Z,22.54
2019-04-29T03:04:39.031Z,22.57
2019-04-29T03:07:05.709Z,22.53
2019-04-29T03:09:32.346Z,22.53
2019-04-29T03:12:01.813Z,22.53
2019-04-29T03:14:25.612Z,22.50
2019-04-29T03:16:52.252Z,22.50
2019-04-29T03:19:18.935Z,22.49
2019-04-29T03:21:45.581Z,22.46
2019-04-29T03:24:12.288Z,22.46
2019-04-29T03:26:38.944Z,22.49
2019-04-29T03:29:05.607Z,22.47
2019-04-29T03:31:38.607Z,22.45
2019-04-29T03:33:58.884Z,22.46
2019-04-29T03:36:25.520Z,22.43
2019-04-29T03:38:52.260Z,22.47
2019-04-29T03:41:18.902Z,22.44
2019-04-29T03:43:45.623Z,22.44
2019-04-29T03:46:12.277Z,22.38
2019-04-29T03:48:38.985Z,22.42
2019-04-29T03:51:05.624Z,22.38
2019-04-29T03:53:32.268Z,22.42
2019-04-29T03:55:58.918Z,22.41
2019-04-29T04:00:52.194Z,22.36
2019-04-29T04:03:18.885Z,22.42
2019-04-29T04:05:45.524Z,22.38
2019-04-29T04:08:12.155Z,22.39
2019-04-29T04:10:38.811Z,22.36
2019-04-29T04:13:05.452Z,22.32
2019-04-29T04:15:32.113Z,22.31
2019-04-29T04:17:58.733Z,22.36
2019-04-29T04:20:25.409Z,22.34
2019-04-29T04:22:52.071Z,22.33
2019-04-29T04:25:18.731Z,22.31
2019-04-29T04:27:45.354Z,22.36
2019-04-29T04:30:12.002Z,22.32
2019-04-29T04:35:05.305Z,22.42
2019-04-29T04:37:31.941Z,22.47
2019-04-29T04:39:58.578Z,22.34
2019-04-29T04:42:25.235Z,22.40
2019-04-29T04:44:51.880Z,22.38
2019-04-29T04:47:18.566Z,22.41
2019-04-29T04:49:45.215Z,22.40
2019-04-29T04:52:11.890Z,22.33
2019-04-29T04:54:38.525Z,22.36
2019-04-29T04:57:05.169Z,22.39
2019-04-29T04:59:31.815Z,22.47
2019-04-29T05:01:58.456Z,22.49
2019-04-29T05:04:25.100Z,22.45
2019-04-29T05:06:51.744Z,22.46
2019-04-29T05:09:18.376Z,22.48
2019-04-29T05:11:45.020Z,22.50
2019-04-29T05:14:11.655Z,22.52
2019-04-29T05:16:38.303Z,22.48
2019-04-29T05:19:04.936Z,22.56
2019-04-29T05:21:31.628Z,22.63
2019-04-29T05:23:58.277Z,22.76
2019-04-29T05:26:24.953Z,22.79
2019-04-29T05:28:51.595Z,22.81
2019-04-29T05:31:18.266Z,22.84
2019-04-29T05:33:44.943Z,22.87
2019-04-29T05:36:11.605Z,22.94
2019-04-29T05:38:38.223Z,22.97
2019-04-29T05:41:04.864Z,23.03
2019-04-29T05:43:32.033Z,23.09
2019-04-29T05:45:58.156Z,23.16
2019-04-29T05:48:27.682Z,23.18
2019-04-29T05:50:52.062Z,23.28
2019-04-29T05:53:18.114Z,23.30
2019-04-29T05:55:44.778Z,23.35
2019-04-29T05:58:11.471Z,23.37
2019-04-29T06:00:38.108Z,23.40
2019-04-29T06:05:31.392Z,23.45
2019-04-29T06:08:01.212Z,23.45
2019-04-29T06:10:24.838Z,23.47
2019-04-29T06:12:51.381Z,23.51
2019-04-29T06:15:18.063Z,23.53
2019-04-29T06:17:46.300Z,23.54
2019-04-29T06:20:13.135Z,23.61
2019-04-29T06:22:41.783Z,23.65
2019-04-29T06:25:04.704Z,23.72
2019-04-29T06:27:33.337Z,23.77
2019-04-29T06:29:58.447Z,23.80
2019-04-29T06:32:26.352Z,23.84
2019-04-29T06:34:51.302Z,23.88
2019-04-29T06:37:17.953Z,23.91
2019-04-29T06:39:44.629Z,23.93
2019-04-29T06:42:11.297Z,23.96
2019-04-29T06:44:37.939Z,23.97
2019-04-29T06:47:04.576Z,23.97
2019-04-29T06:49:31.240Z,24.01
2019-04-29T06:51:57.945Z,24.05
2019-04-29T06:54:24.525Z,24.12
2019-04-29T06:56:51.162Z,24.13
2019-04-29T07:01:44.457Z,24.18
2019-04-29T07:04:11.101Z,24.19
2019-04-29T07:06:37.753Z,24.21
2019-04-29T07:09:04.396Z,24.21
2019-04-29T07:11:31.828Z,24.21
2019-04-29T07:22:56.492Z,24.20
2019-04-29T07:25:24.704Z,24.21
2019-04-29T07:27:46.623Z,24.21
2019-04-29T07:30:13.263Z,24.24
2019-04-29T07:32:46.479Z,24.26
2019-04-29T07:35:09.780Z,24.28
2019-04-29T07:37:34.003Z,24.32
2019-04-29T07:40:03.718Z,24.33
2019-04-29T07:42:32.331Z,24.34
2019-04-29T07:44:54.113Z,24.38
2019-04-29T07:47:19.760Z,24.38
2019-04-29T07:49:47.330Z,24.40
2019-04-29T07:52:14.551Z,24.40
2019-04-29T07:54:39.699Z,24.44
2019-04-29T07:57:06.348Z,24.44
2019-04-29T07:59:33.815Z,24.45
2019-04-29T08:02:01.248Z,24.44
2019-04-29T08:04:26.281Z,24.46
2019-04-29T08:09:19.564Z,24.49
2019-04-29T08:11:46.215Z,24.48
2019-04-29T08:14:12.856Z,24.50
2019-04-29T08:16:39.511Z,24.52
2019-04-29T08:19:06.141Z,24.52
2019-04-29T08:21:32.776Z,24.53
2019-04-29T08:23:59.416Z,24.56
2019-04-29T08:26:26.068Z,24.56
2019-04-29T08:28:59.966Z,24.58
2019-04-29T08:31:20.960Z,24.61
2019-04-29T08:33:46.796Z,24.62
2019-04-29T08:36:12.640Z,24.64
2019-04-29T08:38:39.279Z,24.68
2019-04-29T08:41:05.981Z,24.69
2019-04-29T08:43:32.618Z,24.72
2019-04-29T08:45:59.258Z,24.74
2019-04-29T08:48:25.917Z,24.79
2019-04-29T08:53:19.244Z,24.82
2019-04-29T08:55:45.891Z,24.85
2019-04-29T08:58:12.897Z,24.85
2019-04-29T09:00:39.270Z,24.84
2019-04-29T09:03:05.911Z,24.86
2019-04-29T09:05:32.621Z,24.85
2019-04-29T09:07:59.306Z,24.87
2019-04-29T09:10:26.032Z,24.89
2019-04-29T09:12:52.743Z,24.88
2019-04-29T09:15:19.379Z,24.89
2019-04-29T09:17:46.054Z,24.91
2019-04-29T09:20:12.704Z,24.90
2019-04-29T09:22:39.319Z,24.94
2019-04-29T09:25:05.992Z,24.94
2019-04-29T09:30:00.531Z,24.93
2019-04-29T09:32:25.921Z,24.94
2019-04-29T09:34:55.506Z,24.97
2019-04-29T09:39:45.884Z,24.95
2019-04-29T09:42:13.495Z,24.99
2019-04-29T09:44:40.266Z,24.99
2019-04-29T09:47:08.431Z,25.00
2019-04-29T09:49:32.514Z,25.00
2019-04-29T09:51:59.151Z,24.98
2019-04-29T09:54:25.801Z,25.00
2019-04-29T09:56:52.456Z,25.01
2019-04-29T09:59:19.095Z,24.99
2019-04-29T10:01:45.748Z,25.02
2019-04-29T10:04:12.384Z,25.00
2019-04-29T10:06:39.035Z,25.03
2019-04-29T10:09:05.674Z,25.02
2019-04-29T10:11:32.315Z,25.03
2019-04-29T10:22:54.988Z,25.07
2019-04-29T10:25:21.090Z,25.07
2019-04-29T10:27:47.744Z,25.07
2019-04-29T10:30:14.388Z,25.09
2019-04-29T10:32:42.415Z,25.10
2019-04-29T10:35:10.783Z,25.09
2019-04-29T10:37:37.240Z,25.09
2019-04-29T10:40:10.998Z,25.09
2019-04-29T10:42:30.589Z,25.08
2019-04-29T10:44:57.231Z,25.07
2019-04-29T10:47:23.907Z,25.08
2019-04-29T10:49:50.549Z,25.07
2019-04-29T10:52:17.206Z,25.09
2019-04-29T10:54:43.843Z,25.08
2019-04-29T10:57:14.340Z,25.06
2019-04-29T10:59:40.692Z,25.07
2019-04-29T11:02:09.121Z,25.08
2019-04-29T11:04:31.740Z,25.06
2019-04-29T11:06:57.084Z,25.09
2019-04-29T11:09:23.733Z,25.08
2019-04-29T11:11:50.429Z,25.08
2019-04-29T11:14:17.069Z,25.09
2019-04-29T11:16:46.661Z,25.08
2019-04-29T11:19:10.870Z,25.11
2019-04-29T11:21:39.020Z,25.12
2019-04-29T11:24:04.209Z,25.14
2019-04-29T11:26:30.849Z,25.13
2019-04-29T11:28:57.491Z,25.15
2019-04-29T11:31:24.127Z,25.16
2019-04-29T11:33:50.808Z,25.15
2019-04-29T11:36:17.453Z,25.15
2019-04-29T11:38:44.132Z,25.14
2019-04-29T11:41:12.274Z,25.15
2019-04-29T11:43:37.475Z,25.16
2019-04-29T11:46:04.178Z,25.16
2019-04-29T11:48:30.797Z,25.18
2019-04-29T11:50:57.461Z,25.16
2019-04-29T11:53:24.112Z,25.14
2019-04-29T11:55:52.665Z,25.15
2019-04-29T11:58:17.439Z,25.14
2019-04-29T12:00:44.078Z,25.16
2019-04-29T12:03:14.543Z,25.14
2019-04-29T12:05:40.094Z,25.14
2019-04-29T12:08:11.428Z,25.13
2019-04-29T12:10:30.651Z,25.14
2019-04-29T12:15:23.977Z,25.15
2019-04-29T12:17:50.611Z,25.14
2019-04-29T12:20:17.313Z,25.13
2019-04-29T12:22:48.460Z,25.17
2019-04-29T12:25:10.653Z,25.16
2019-04-29T12:27:37.296Z,25.17
2019-04-29T12:30:03.932Z,25.14
2019-04-29T12:32:30.596Z,25.14
2019-04-29T12:34:57.337Z,25.12
2019-04-29T12:37:25.634Z,25.10
2019-04-29T12:39:50.728Z,25.11
2019-04-29T12:42:20.321Z,25.16
2019-04-29T12:44:47.058Z,25.15
2019-04-29T12:47:25.837Z,25.14
2019-04-29T12:49:42.485Z,25.15
2019-04-29T12:52:06.928Z,25.13
2019-04-29T12:54:33.564Z,25.14
2019-04-29T12:57:00.249Z,25.15
2019-04-29T12:59:30.625Z,25.14
2019-04-29T13:01:58.303Z,25.14
2019-04-29T13:06:46.872Z,25.12
2019-04-29T13:09:17.819Z,25.12
2019-04-29T13:11:48.215Z,25.11
2019-04-29T13:14:06.815Z,25.11
2019-04-29T13:16:33.509Z,25.12
2019-04-29T13:19:11.630Z,25.12
2019-04-29T13:21:26.845Z,25.11
2019-04-29T13:24:12.113Z,25.13
2019-04-29T13:26:27.853Z,25.13
2019-04-29T13:29:00.513Z,25.14
2019-04-29T13:31:13.464Z,25.12
2019-04-29T13:33:40.107Z,25.16
2019-04-29T13:36:06.803Z,25.15
2019-04-29T13:38:33.459Z,25.14
2019-04-29T13:41:13.247Z,25.14
2019-04-29T13:43:27.229Z,25.15
2019-04-29T13:45:53.468Z,25.15
2019-04-29T13:48:20.115Z,25.14
2019-04-29T13:53:16.719Z,25.16
2019-04-29T13:55:49.669Z,25.15
2019-04-29T13:58:06.761Z,25.14
2019-04-29T14:03:00.053Z,25.15
2019-04-29T14:05:26.732Z,25.13
2019-04-29T14:07:54.322Z,25.13
2019-04-29T14:10:20.020Z,25.12
2019-04-29T14:12:48.860Z,25.11
2019-04-29T14:15:13.332Z,25.12
2019-04-29T14:17:39.972Z,25.10
2019-04-29T14:20:10.731Z,25.12
2019-04-29T14:22:33.261Z,25.11
2019-04-29T14:24:59.919Z,25.12
2019-04-29T14:27:26.557Z,25.11
2019-04-29T14:29:53.279Z,25.15
2019-04-29T14:32:32.749Z,25.24
2019-04-29T14:34:46.572Z,25.23
2019-04-29T14:37:21.323Z,25.23
2019-04-29T14:39:39.927Z,25.26
2019-04-29T14:42:06.568Z,25.24
2019-04-29T14:44:33.202Z,25.22
2019-04-29T14:46:59.849Z,25.22
2019-04-29T14:49:28.026Z,25.23
2019-04-29T14:51:53.154Z,25.19
2019-04-29T14:56:47.930Z,25.16
2019-04-29T14:59:13.223Z,25.18
2019-04-29T15:01:39.778Z,25.15
2019-04-29T15:04:18.036Z,25.16
2019-04-29T15:06:33.154Z,25.15
2019-04-29T15:08:59.740Z,25.13
2019-04-29T15:11:31.852Z,25.15
2019-04-29T15:13:53.023Z,25.11
2019-04-29T15:16:19.653Z,25.21
2019-04-29T15:18:50.204Z,25.20
2019-04-29T15:21:12.991Z,25.13
2019-04-29T15:23:39.708Z,25.13
2019-04-29T15:26:06.349Z,25.17
2019-04-29T15:31:28.149Z,25.17
2019-04-29T15:33:54.801Z,25.19
2019-04-29T15:36:21.434Z,25.18
2019-04-29T15:39:07.919Z,25.14
2019-04-29T15:41:14.984Z,25.18
2019-04-29T15:43:46.928Z,25.14
2019-04-29T15:46:11.362Z,25.11
2019-04-29T15:48:34.761Z,25.12
2019-04-29T15:51:01.395Z,25.12
2019-04-29T15:53:28.038Z,25.11
2019-04-29T15:56:06.205Z,25.11
2019-04-29T15:58:22.545Z,25.11
2019-04-29T16:00:47.988Z,25.09
2019-04-29T16:03:17.709Z,25.10
2019-04-29T16:05:56.055Z,25.12
2019-04-29T16:08:07.906Z,25.12
2019-04-29T16:10:34.565Z,25.11
2019-04-29T16:13:01.208Z,25.09
2019-04-29T16:15:27.949Z,25.03
2019-04-29T16:17:54.580Z,25.03
2019-04-29T16:20:21.228Z,25.04
2019-04-29T16:22:47.869Z,25.00
2019-04-29T16:25:14.553Z,24.97
2019-04-29T16:27:51.435Z,24.99
2019-04-29T16:30:07.841Z,24.97
2019-04-29T16:32:34.479Z,24.96
2019-04-29T16:35:01.128Z,24.94
2019-04-29T16:37:31.887Z,24.93
2019-04-29T16:39:59.790Z,24.94
2019-04-29T16:42:21.081Z,24.91
2019-04-29T16:44:47.735Z,24.89
2019-04-29T16:47:15.672Z,24.87
2019-04-29T16:49:41.009Z,24.87
2019-04-29T16:52:08.614Z,24.85
2019-04-29T16:54:35.288Z,24.83
2019-04-29T16:57:01.900Z,24.83
2019-04-29T16:59:28.551Z,24.80
2019-04-29T17:01:55.264Z,24.79
2019-04-29T17:04:21.839Z,24.77
2019-04-29T17:07:11.223Z,24.76
2019-04-29T17:09:15.114Z,24.78
2019-04-29T17:11:41.768Z,24.79
2019-04-29T17:14:10.096Z,24.73
2019-04-29T17:16:35.051Z,24.76
2019-04-29T17:19:01.681Z,24.69
2019-04-29T17:21:28.328Z,24.65
2019-04-29T17:23:54.984Z,24.64
2019-04-29T17:26:21.610Z,24.62
2019-04-29T17:28:48.302Z,24.61
2019-04-29T17:31:15.310Z,24.59
2019-04-29T17:33:49.170Z,24.56
2019-04-29T17:36:08.233Z,24.58
2019-04-29T17:41:01.525Z,24.53
2019-04-29T17:43:28.159Z,24.53
2019-04-29T17:45:54.802Z,24.50
2019-04-29T17:48:21.438Z,24.51
2019-04-29T17:50:48.250Z,24.51
2019-04-29T17:53:15.290Z,24.51
2019-04-29T17:55:41.455Z,24.49
2019-04-29T17:58:08.078Z,24.47
2019-04-29T18:00:42.203Z,24.48
2019-04-29T18:03:01.382Z,24.49
2019-04-29T18:05:33.021Z,24.45
2019-04-29T18:07:55.265Z,24.46
2019-04-29T18:10:24.363Z,24.46
2019-04-29T18:12:47.957Z,24.45
2019-04-29T18:15:17.644Z,24.46
2019-04-29T18:17:41.237Z,24.43
2019-04-29T18:20:13.480Z,24.38
2019-04-29T18:22:34.983Z,24.40
2019-04-29T18:25:01.182Z,24.39
2019-04-29T18:27:27.821Z,24.40
2019-04-29T18:29:55.110Z,24.37
2019-04-29T18:32:32.884Z,24.35
2019-04-29T18:34:47.808Z,24.35
2019-04-29T18:37:15.254Z,24.32
2019-04-29T18:42:07.747Z,24.28
2019-04-29T18:44:35.751Z,24.28
2019-04-29T18:47:01.034Z,24.29
2019-04-29T18:51:57.885Z,24.26
2019-04-29T18:54:20.980Z,24.24
2019-04-29T18:56:47.640Z,24.25
2019-04-29T18:59:18.207Z,24.23
2019-04-29T19:01:40.912Z,24.20
2019-04-29T19:04:10.258Z,24.23
2019-04-29T19:06:34.195Z,24.20
2019-04-29T19:09:02.002Z,24.21
2019-04-29T19:11:32.117Z,24.16
2019-04-29T19:13:54.152Z,24.18
2019-04-29T19:16:22.293Z,24.17
2019-04-29T19:18:47.562Z,24.14
2019-04-29T19:21:15.491Z,24.15
2019-04-29T19:23:40.777Z,24.13
2019-04-29T19:26:07.447Z,24.12
2019-04-29T19:28:34.638Z,24.13
2019-04-29T19:31:03.115Z,24.10
2019-04-29T19:33:30.825Z,24.09
2019-04-29T19:35:55.401Z,24.07
2019-04-29T19:38:20.706Z,24.06
2019-04-29T19:40:47.373Z,24.04
2019-04-29T19:43:17.347Z,24.03
2019-04-29T19:45:40.679Z,24.03
2019-04-29T19:48:07.333Z,24.02
2019-04-29T19:50:35.792Z,24.00
2019-04-29T19:53:04.508Z,24.01
2019-04-29T19:55:27.866Z,24.01
2019-04-29T19:57:56.078Z,23.97
2019-04-29T20:00:28.375Z,24.00
2019-04-29T20:02:50.156Z,23.97
2019-04-29T20:05:16.073Z,23.96
2019-04-29T20:07:42.274Z,23.95
2019-04-29T20:10:09.901Z,23.94
2019-04-29T20:12:36.029Z,23.96
2019-04-29T20:15:02.345Z,23.94
2019-04-29T20:17:30.538Z,23.91
2019-04-29T20:19:56.715Z,23.90
2019-04-29T20:22:20.889Z,23.89
2019-04-29T20:24:50.622Z,23.88
2019-04-29T20:27:14.063Z,23.95
2019-04-29T20:29:40.790Z,23.90
2019-04-29T20:32:07.942Z,23.88
2019-04-29T20:34:35.978Z,23.90
2019-04-29T20:37:00.697Z,23.85
2019-04-29T20:39:27.304Z,23.87
2019-04-29T20:41:55.708Z,23.88
2019-04-29T20:44:20.690Z,23.88
2019-04-29T20:47:12.695Z,23.91
2019-04-29T20:51:51.226Z,23.87
2019-04-29T20:54:09.103Z,23.85
2019-04-29T20:56:35.363Z,23.84
2019-04-29T20:59:02.002Z,23.86
2019-04-29T21:01:27.189Z,23.83
2019-04-29T21:03:56.117Z,23.85
2019-04-29T21:06:20.364Z,23.87
2019-04-29T21:08:51.156Z,23.83
2019-04-29T21:11:15.293Z,23.91
2019-04-29T21:13:40.338Z,23.81
2019-04-29T21:16:06.967Z,23.84
2019-04-29T21:18:35.409Z,23.79
2019-04-29T21:21:04.612Z,23.77
2019-04-29T21:23:31.443Z,23.83
2019-04-29T21:26:00.407Z,23.80
2019-04-29T21:28:23.094Z,23.78
2019-04-29T21:30:49.803Z,23.79
2019-04-29T21:33:20.989Z,23.75
2019-04-29T21:35:43.126Z,23.75
2019-04-29T21:38:09.762Z,23.73
2019-04-29T21:40:36.423Z,23.77
2019-04-29T21:43:06.285Z,23.73
2019-04-29T21:45:29.856Z,23.75
2019-04-29T21:47:56.511Z,23.74
2019-04-29T21:52:49.799Z,23.76
2019-04-29T21:55:20.573Z,23.77
2019-04-29T21:57:43.114Z,23.78
2019-04-29T22:00:09.759Z,23.75
2019-04-29T22:02:36.419Z,23.78
2019-04-29T22:05:05.086Z,23.76
2019-04-29T22:07:29.744Z,23.73
2019-04-29T22:09:56.379Z,23.74
2019-04-29T22:12:23.021Z,23.69
2019-04-29T22:14:53.908Z,23.75
2019-04-29T22:17:16.318Z,23.73
2019-04-29T22:19:45.011Z,23.70
2019-04-29T22:24:37.722Z,23.64
2019-04-29T22:27:05.193Z,23.70
2019-04-29T22:29:31.982Z,23.68
2019-04-29T22:31:56.233Z,23.66
2019-04-29T22:34:22.882Z,23.67
2019-04-29T22:36:52.764Z,23.64
2019-04-29T22:39:16.171Z,23.64
2019-04-29T22:41:42.806Z,23.61
2019-04-29T22:44:09.448Z,23.64
2019-04-29T22:46:40.102Z,23.68
2019-04-29T22:49:02.743Z,23.59
2019-04-29T22:51:29.389Z,23.64
2019-04-29T22:53:56.038Z,23.60
2019-04-29T22:56:22.672Z,23.64
2019-04-29T22:58:49.349Z,23.59
2019-04-29T23:01:17.753Z,23.63
2019-04-29T23:03:42.636Z,23.60
2019-04-29T23:06:09.292Z,23.60
2019-04-29T23:08:38.065Z,23.60
2019-04-29T23:11:04.146Z,23.63
2019-04-29T23:13:31.112Z,23.53
2019-04-29T23:16:01.008Z,23.59
2019-04-29T23:18:26.759Z,23.56
2019-04-29T23:20:49.313Z,23.59
2019-04-29T23:23:15.943Z,23.54
2019-04-29T23:25:42.593Z,23.59
2019-04-29T23:28:09.245Z,23.49
2019-04-29T23:30:35.919Z,23.51
2019-04-29T23:33:02.556Z,23.51
2019-04-29T23:35:29.197Z,23.51
2019-04-29T23:37:58.818Z,23.53
2019-04-29T23:40:22.474Z,23.56
2019-04-29T23:42:49.263Z,23.47
2019-04-29T23:45:21.123Z,23.46
2019-04-29T23:47:46.876Z,23.45
2019-04-29T23:50:09.043Z,23.48
2019-04-29T23:52:35.997Z,23.41
2019-04-29T23:55:02.381Z,23.49
2019-04-29T23:57:29.012Z,23.46
2019-04-29T23:59:58.566Z,23.46
